createdAt,value
2018-01-10T05:21:58.189Z,3.37
2018-01-10T05:24:26.792Z,3.50
2018-01-10T05:26:56.203Z,3.63
2018-01-10T05:29:25.514Z,8.73
2018-01-10T05:31:54.715Z,7.43
2018-01-10T05:34:22.494Z,5.87
2018-01-10T05:36:50.321Z,9.27
2018-01-10T05:39:18.156Z,3.83
2018-01-10T05:41:45.970Z,7.97
2018-01-10T05:44:13.769Z,7.30
2018-01-10T05:46:48.895Z,4.07
2018-01-10T05:49:16.690Z,4.23
2018-01-10T05:51:45.815Z,5.73
2018-01-10T05:54:14.425Z,5.60
2018-01-10T05:56:42.292Z,11.47
2018-01-10T05:59:10.162Z,7.20
2018-01-10T06:02:00.044Z,6.63
2018-01-10T06:04:28.771Z,2.20
2018-01-10T06:06:58.026Z,3.13
2018-01-10T06:09:26.583Z,3.33
2018-01-10T06:11:54.412Z,4.90
2018-01-10T06:14:22.306Z,9.00
2018-01-10T06:16:50.077Z,9.70
2018-01-10T06:19:17.874Z,3.10
2018-01-10T06:21:45.669Z,2.60
2018-01-10T06:24:13.488Z,2.80
2018-01-10T06:26:42.025Z,5.10
2018-01-10T06:29:09.812Z,7.13
2018-01-10T06:31:37.710Z,10.10
2018-01-10T06:34:06.275Z,7.97
2018-01-10T06:36:34.876Z,10.90
2018-01-10T06:39:03.565Z,8.53
2018-01-10T06:41:32.207Z,6.87
2018-01-10T06:44:00.008Z,17.70
2018-01-10T06:46:27.899Z,8.10
2018-01-10T06:48:55.693Z,6.10
2018-01-10T06:51:23.523Z,5.13
2018-01-10T06:53:51.352Z,4.93
2018-01-10T06:56:19.991Z,6.57
2018-01-10T06:58:47.855Z,5.90
2018-01-10T07:01:15.654Z,3.07
2018-01-10T07:03:43.540Z,3.10
2018-01-10T07:06:11.356Z,4.00
2018-01-10T07:08:39.120Z,5.53
2018-01-10T07:11:06.959Z,5.20
2018-01-10T07:13:35.585Z,5.70
2018-01-10T07:16:03.482Z,4.10
2018-01-10T07:18:32.089Z,4.13
2018-01-10T07:21:00.636Z,4.80
2018-01-10T07:23:28.473Z,5.83
2018-01-10T07:25:56.269Z,5.07
2018-01-10T07:28:24.100Z,8.57
2018-01-10T07:30:52.042Z,12.00
2018-01-10T07:33:19.872Z,6.70
2018-01-10T07:35:47.661Z,4.30
2018-01-10T07:38:15.454Z,4.30
2018-01-10T07:40:44.002Z,2.73
2018-01-10T07:43:11.803Z,3.37
2018-01-10T07:45:40.700Z,6.67
2018-01-10T07:48:09.266Z,5.47
2018-01-10T07:50:37.149Z,5.37
2018-01-10T07:53:05.789Z,9.93
2018-01-10T07:55:33.589Z,5.93
2018-01-10T07:58:02.160Z,10.40
2018-01-10T08:00:30.016Z,3.70
2018-01-10T08:02:57.930Z,3.93
2018-01-10T08:05:25.795Z,10.57
2018-01-10T08:07:53.643Z,8.90
2018-01-10T08:10:22.230Z,9.10
2018-01-10T08:12:50.845Z,5.17
2018-01-10T08:15:18.644Z,6.03
2018-01-10T08:17:47.078Z,6.23
2018-01-10T08:20:15.764Z,4.47
2018-01-10T08:22:43.589Z,6.00
2018-01-10T08:25:11.346Z,11.53
2018-01-10T08:27:39.127Z,7.97
2018-01-10T08:30:07.728Z,18.67
2018-01-10T08:32:35.562Z,5.07
2018-01-10T08:35:03.359Z,5.93
2018-01-10T08:37:31.121Z,5.00
2018-01-10T08:39:58.940Z,2.43
2018-01-10T08:42:26.791Z,4.23
2018-01-10T08:44:54.552Z,3.30
2018-01-10T08:47:22.423Z,2.83
2018-01-10T08:49:50.277Z,1.43
2018-01-10T08:52:18.048Z,6.13
2018-01-10T08:54:45.877Z,2.33
2018-01-10T08:57:13.727Z,3.53
2018-01-10T08:59:42.303Z,4.60
2018-01-10T09:02:10.174Z,3.30
2018-01-10T09:04:38.723Z,4.70
2018-01-10T09:07:06.541Z,3.80
2018-01-10T09:09:34.382Z,2.40
2018-01-10T09:12:02.200Z,2.90
2018-01-10T09:14:30.059Z,4.27
2018-01-10T09:16:57.896Z,6.03
2018-01-10T09:19:27.629Z,5.47
2018-01-10T09:21:55.504Z,3.87
2018-01-10T09:24:23.345Z,1.90
2018-01-10T09:26:51.178Z,7.60
2018-01-10T09:29:19.030Z,7.00
2018-01-10T09:31:46.930Z,3.93
2018-01-10T09:34:14.703Z,2.90
2018-01-10T09:36:43.338Z,1.67
2018-01-10T09:39:11.198Z,3.23
2018-01-10T09:41:38.998Z,2.30
2018-01-10T09:44:06.762Z,1.83
2018-01-10T09:46:34.615Z,6.80
2018-01-10T09:49:08.365Z,8.37
2018-01-10T09:51:36.178Z,8.53
2018-01-10T09:54:03.999Z,3.97
2018-01-10T09:56:31.873Z,2.13
2018-01-10T09:58:59.683Z,1.33
2018-01-10T10:01:27.544Z,3.47
2018-01-10T10:03:55.358Z,3.47
2018-01-10T10:06:23.139Z,3.03
2018-01-10T10:08:51.028Z,2.83
2018-01-10T10:11:18.813Z,1.73
2018-01-10T10:13:46.647Z,4.30
2018-01-10T10:16:14.436Z,3.77
2018-01-10T10:18:42.981Z,3.00
2018-01-10T10:21:10.807Z,2.53
2018-01-10T10:23:38.586Z,2.03
2018-01-10T10:26:07.232Z,5.20
2018-01-10T10:28:35.092Z,2.67
2018-01-10T10:31:03.656Z,2.97
2018-01-10T10:33:31.528Z,1.90
2018-01-10T10:35:59.322Z,4.40
2018-01-10T10:38:27.124Z,1.43
2018-01-10T10:40:55.702Z,2.00
2018-01-10T10:43:24.254Z,7.30
2018-01-10T10:45:52.037Z,2.53
2018-01-10T10:48:19.899Z,3.83
2018-01-10T10:50:48.529Z,4.30
2018-01-10T10:53:16.380Z,2.63
2018-01-10T10:55:44.268Z,2.23
2018-01-10T10:58:12.148Z,2.83
2018-01-10T11:00:39.920Z,2.00
2018-01-10T11:03:07.758Z,2.37
2018-01-10T11:05:35.585Z,1.40
2018-01-10T11:08:03.325Z,2.40
2018-01-10T11:10:31.178Z,1.20
2018-01-10T11:12:58.998Z,6.03
2018-01-10T11:15:27.526Z,3.37
2018-01-10T11:17:55.345Z,3.13
2018-01-10T11:20:24.000Z,1.17
2018-01-10T11:22:51.853Z,1.13
2018-01-10T11:25:19.641Z,8.03
2018-01-10T11:27:51.186Z,9.23
2018-01-10T11:30:19.011Z,2.30
2018-01-10T11:32:46.812Z,1.57
2018-01-10T11:35:14.598Z,3.87
2018-01-10T11:37:43.120Z,3.73
2018-01-10T11:40:10.966Z,1.43
2018-01-10T11:42:38.751Z,0.77
2018-01-10T11:45:06.584Z,1.67
2018-01-10T11:47:35.190Z,0.73
2018-01-10T11:50:03.009Z,1.80
2018-01-10T11:52:30.829Z,5.77
2018-01-10T11:54:58.661Z,1.00
2018-01-10T11:57:27.266Z,1.67
2018-01-10T11:59:55.093Z,1.20
2018-01-10T12:02:23.633Z,5.57
2018-01-10T12:04:51.475Z,1.27
2018-01-10T12:07:19.224Z,3.67
2018-01-10T12:09:47.784Z,3.77
2018-01-10T12:12:15.626Z,5.10
2018-01-10T12:14:43.467Z,2.70
2018-01-10T12:17:11.325Z,2.20
2018-01-10T12:19:39.113Z,5.17
2018-01-10T12:22:06.944Z,3.50
2018-01-10T12:24:35.511Z,1.00
2018-01-10T12:27:05.564Z,3.70
2018-01-10T12:29:35.092Z,1.13
2018-01-10T12:32:02.994Z,3.40
2018-01-10T12:34:30.780Z,2.70
2018-01-10T12:36:58.563Z,1.57
2018-01-10T12:39:26.425Z,4.93
2018-01-10T12:45:12.497Z,1.53
2018-01-10T12:47:40.336Z,5.13
2018-01-10T12:50:08.139Z,2.87
2018-01-10T12:52:36.772Z,3.20
2018-01-10T12:55:04.624Z,1.80
2018-01-10T12:57:33.843Z,2.60
2018-01-10T13:00:01.604Z,1.17
2018-01-10T13:02:29.522Z,1.57
2018-01-10T13:04:58.176Z,1.20
2018-01-10T13:07:26.014Z,2.07
2018-01-10T13:09:53.867Z,1.90
2018-01-10T13:12:21.624Z,2.07
2018-01-10T13:17:24.321Z,2.40
2018-01-10T13:19:52.187Z,2.83
2018-01-10T13:22:21.053Z,2.63
2018-01-10T13:24:48.913Z,2.60
2018-01-10T13:27:19.249Z,3.03
2018-01-10T13:29:47.771Z,2.47
2018-01-10T13:32:21.360Z,2.00
2018-01-10T13:34:49.242Z,2.27
2018-01-10T13:37:18.546Z,4.37
2018-01-10T13:39:46.414Z,7.63
2018-01-10T13:42:14.342Z,3.50
2018-01-10T13:44:42.140Z,1.83
2018-01-10T13:47:09.944Z,7.53
2018-01-10T13:49:37.806Z,4.30
2018-01-10T13:52:05.726Z,7.87
2018-01-10T13:54:33.730Z,5.03
2018-01-10T13:57:01.603Z,6.63
2018-01-10T13:59:30.852Z,7.37
2018-01-10T14:01:58.687Z,3.50
2018-01-10T14:04:27.969Z,5.27
2018-01-10T14:06:57.815Z,3.00
2018-01-10T14:09:26.406Z,3.77
2018-01-10T14:11:56.008Z,5.50
2018-01-10T14:14:23.906Z,6.97
2018-01-10T14:16:52.891Z,7.43
2018-01-10T14:19:22.164Z,10.30
2018-01-10T14:21:52.093Z,5.73
2018-01-10T14:24:20.780Z,2.30
2018-01-10T14:26:50.333Z,3.53
2018-01-10T14:29:18.173Z,12.80
2018-01-10T14:31:45.962Z,6.33
2018-01-10T14:34:13.756Z,4.33
2018-01-10T14:36:42.463Z,8.53
2018-01-10T14:39:12.043Z,4.10
2018-01-10T14:41:39.886Z,5.30
2018-01-10T14:44:07.779Z,16.43
2018-01-10T14:46:36.318Z,11.73
2018-01-10T14:49:05.868Z,15.17
2018-01-10T14:51:34.542Z,7.13
2018-01-10T14:54:04.609Z,7.37
2018-01-10T14:56:32.850Z,7.67
2018-01-10T14:59:04.857Z,6.43
2018-01-10T15:01:32.696Z,5.00
2018-01-10T15:04:00.479Z,4.50
2018-01-10T15:06:28.317Z,4.13
2018-01-10T15:08:56.857Z,8.60
2018-01-10T15:11:24.746Z,6.50
2018-01-10T15:13:52.575Z,3.77
2018-01-10T15:16:20.406Z,3.63
2018-01-10T15:18:48.207Z,2.90
2018-01-10T15:21:15.968Z,11.07
2018-01-10T15:23:43.808Z,5.50
2018-01-10T15:26:12.494Z,11.43
2018-01-10T15:28:41.052Z,23.33
2018-01-10T15:31:08.840Z,7.10
2018-01-10T15:33:37.423Z,13.10
2018-01-10T15:36:05.567Z,8.10
2018-01-10T15:38:33.408Z,13.50
2018-01-10T15:41:01.242Z,15.17
2018-01-10T15:43:30.056Z,11.20
2018-01-10T15:45:57.869Z,12.43
2018-01-10T15:48:25.751Z,10.43
2018-01-10T15:50:54.300Z,18.23
2018-01-10T15:53:22.069Z,10.90
2018-01-10T15:55:51.026Z,12.80
2018-01-10T15:58:18.857Z,16.83
2018-01-10T16:00:47.457Z,12.10
2018-01-10T16:03:16.041Z,13.63
2018-01-10T16:05:43.976Z,12.93
2018-01-10T16:08:11.770Z,11.93
2018-01-10T16:10:40.390Z,10.67
2018-01-10T16:13:08.181Z,14.27
2018-01-10T16:15:35.967Z,18.50
2018-01-10T16:18:04.549Z,13.10
2018-01-10T16:20:32.429Z,16.73
2018-01-10T16:23:00.948Z,13.63
2018-01-10T16:25:28.682Z,15.20
2018-01-10T16:27:57.375Z,18.40
2018-01-10T16:30:25.172Z,19.20
2018-01-10T16:32:53.071Z,18.57
2018-01-10T16:35:21.676Z,20.47
2018-01-10T16:37:50.954Z,19.57
2018-01-10T16:40:18.744Z,18.80
2018-01-10T16:42:48.009Z,28.23
2018-01-10T16:45:17.562Z,32.63
2018-01-10T16:47:45.987Z,23.87
2018-01-10T16:50:13.830Z,22.10
2018-01-10T16:52:41.650Z,18.93
2018-01-10T16:55:09.774Z,27.57
2018-01-10T16:57:38.381Z,20.13
2018-01-10T17:00:06.196Z,15.73
2018-01-10T17:02:34.047Z,20.23
2018-01-10T17:05:01.892Z,15.17
2018-01-10T17:07:29.718Z,13.37
2018-01-10T17:09:57.556Z,14.77
2018-01-10T17:12:25.382Z,12.10
2018-01-10T17:14:53.170Z,17.90
2018-01-10T17:17:20.973Z,18.63
2018-01-10T17:19:48.862Z,14.90
2018-01-10T17:22:16.783Z,18.17
2018-01-10T17:24:44.641Z,17.77
2018-01-10T17:27:12.620Z,19.83
2018-01-10T17:29:41.402Z,25.53
2018-01-10T17:32:09.268Z,23.73
2018-01-10T17:34:38.886Z,14.23
2018-01-10T17:37:07.558Z,13.83
2018-01-10T17:39:35.635Z,26.70
2018-01-10T17:42:10.253Z,18.10
2018-01-10T17:44:40.394Z,19.20
2018-01-10T17:47:09.163Z,16.80
2018-01-10T17:49:37.130Z,16.63
2018-01-10T17:52:06.093Z,20.97
2018-01-10T17:54:34.705Z,13.23
2018-01-10T17:57:02.578Z,15.50
2018-01-10T17:59:30.438Z,22.83
2018-01-10T18:01:58.868Z,18.03
2018-01-10T18:04:29.858Z,16.10
2018-01-10T18:06:58.770Z,20.90
2018-01-10T18:09:29.258Z,20.33
2018-01-10T18:11:57.111Z,16.30
2018-01-10T18:14:25.011Z,15.03
2018-01-10T18:16:53.111Z,24.03
2018-01-10T18:19:22.232Z,16.30
2018-01-10T18:21:52.603Z,14.27
2018-01-10T18:24:21.962Z,13.93
2018-01-10T18:26:50.770Z,17.53
2018-01-10T18:29:19.206Z,15.03
2018-01-10T18:31:47.184Z,15.80
2018-01-10T18:34:16.270Z,16.37
2018-01-10T18:36:45.025Z,19.30
2018-01-10T18:39:12.883Z,16.43
2018-01-10T18:41:41.016Z,18.37
2018-01-10T18:44:08.908Z,20.40
2018-01-10T18:46:36.714Z,14.50
2018-01-10T18:49:05.062Z,15.00
2018-01-10T18:51:33.201Z,17.70
2018-01-10T18:54:02.691Z,17.30
2018-01-10T18:56:30.960Z,19.63
2018-01-10T18:58:59.202Z,20.70
2018-01-10T19:01:27.816Z,16.50
2018-01-10T19:03:55.633Z,30.73
2018-01-10T19:06:23.930Z,18.43
2018-01-10T19:08:52.274Z,18.33
2018-01-10T19:11:20.138Z,15.80
2018-01-10T19:13:48.119Z,19.67
2018-01-10T19:16:16.788Z,14.50
2018-01-10T19:18:47.139Z,22.77
2018-01-10T19:21:15.354Z,13.80
2018-01-10T19:23:44.696Z,14.80
2018-01-10T19:26:13.629Z,19.50
2018-01-10T19:29:03.352Z,16.33
2018-01-10T19:31:31.463Z,16.73
2018-01-10T19:34:00.155Z,17.47
2018-01-10T19:36:29.694Z,21.70
2018-01-10T19:38:58.512Z,17.63
2018-01-10T19:41:26.434Z,21.77
2018-01-10T19:43:54.318Z,14.87
2018-01-10T19:46:22.107Z,21.43
2018-01-10T19:48:50.310Z,16.57
2018-01-10T19:51:18.900Z,18.63
2018-01-10T19:53:48.072Z,17.53
2018-01-10T19:56:16.042Z,18.60
2018-01-10T19:58:43.905Z,18.30
2018-01-10T20:01:11.975Z,20.13
2018-01-10T20:03:39.991Z,19.27
2018-01-10T20:06:07.913Z,16.43
2018-01-10T20:08:38.417Z,18.70
2018-01-10T20:11:09.022Z,22.60
2018-01-10T20:13:39.090Z,16.33
2018-01-10T20:16:07.778Z,17.33
2018-01-10T20:18:36.871Z,20.73
2018-01-10T20:21:07.071Z,19.00
2018-01-10T20:23:35.366Z,16.20
2018-01-10T20:26:04.159Z,16.83
2018-01-10T20:28:32.278Z,17.83
2018-01-10T20:31:02.370Z,19.00
2018-01-10T20:33:33.662Z,23.80
2018-01-10T20:36:01.660Z,24.37
2018-01-10T20:38:34.458Z,20.07
2018-01-10T20:41:07.514Z,18.47
2018-01-10T20:43:39.569Z,24.10
2018-01-10T20:46:08.083Z,19.33
2018-01-10T20:48:37.961Z,18.73
2018-01-10T20:53:43.375Z,23.33
2018-01-10T20:56:14.149Z,20.40
2018-01-10T20:58:42.056Z,22.77
2018-01-10T21:01:09.917Z,22.43
2018-01-10T21:03:39.958Z,24.93
2018-01-10T21:06:10.592Z,22.37
2018-01-10T21:08:39.251Z,23.30
2018-01-10T21:11:08.083Z,24.70
2018-01-10T21:13:36.596Z,19.97
2018-01-10T21:16:05.188Z,21.93
2018-01-10T21:18:33.052Z,25.47
2018-01-10T21:21:00.855Z,27.67
2018-01-10T21:23:28.717Z,25.53
2018-01-10T21:25:56.588Z,24.50
2018-01-10T21:28:24.412Z,24.20
2018-01-10T21:30:52.253Z,22.43
2018-01-10T21:33:20.100Z,24.33
2018-01-10T21:35:48.705Z,22.70
2018-01-10T21:38:16.512Z,25.33
2018-01-10T21:40:44.311Z,24.77
2018-01-10T21:43:12.855Z,29.70
2018-01-10T21:45:40.653Z,25.10
2018-01-10T21:48:09.255Z,28.97
2018-01-10T21:50:38.006Z,27.90
2018-01-10T21:53:05.816Z,32.47
2018-01-10T21:55:33.653Z,23.40
2018-01-10T21:58:01.507Z,32.43
2018-01-10T22:00:29.497Z,31.03
2018-01-10T22:02:57.424Z,28.73
2018-01-10T22:05:26.596Z,28.40
2018-01-10T22:07:54.432Z,30.03
2018-01-10T22:10:23.037Z,28.23
2018-01-10T22:12:52.619Z,29.17
2018-01-10T22:15:24.315Z,32.17
2018-01-10T22:17:53.913Z,32.83
2018-01-10T22:20:21.759Z,30.87
2018-01-10T22:22:49.690Z,36.33
2018-01-10T22:25:17.557Z,31.67
2018-01-10T22:27:45.383Z,34.93
2018-01-10T22:30:13.248Z,33.50
2018-01-10T22:32:41.149Z,44.43
2018-01-10T22:35:08.923Z,34.33
2018-01-10T22:37:36.725Z,34.83
2018-01-10T22:40:05.002Z,31.77
2018-01-10T22:42:32.832Z,34.87
2018-01-10T22:45:00.633Z,38.60
2018-01-10T22:47:28.491Z,37.63
2018-01-10T22:49:57.056Z,36.17
2018-01-10T22:52:26.970Z,41.37
2018-01-10T22:54:54.874Z,34.90
2018-01-10T22:57:22.808Z,37.73
2018-01-10T22:59:51.386Z,37.63
2018-01-10T23:02:19.981Z,32.43
2018-01-10T23:04:47.843Z,33.70
2018-01-10T23:07:15.662Z,37.30
2018-01-10T23:09:43.501Z,34.07
2018-01-10T23:12:11.328Z,34.87
2018-01-10T23:14:39.144Z,43.97
2018-01-10T23:17:07.251Z,48.37
2018-01-10T23:19:37.137Z,37.47
2018-01-10T23:22:05.174Z,36.13
2018-01-10T23:24:33.920Z,33.20
2018-01-10T23:27:02.063Z,37.73
2018-01-10T23:29:30.052Z,42.13
2018-01-10T23:31:58.019Z,42.20
2018-01-10T23:34:26.056Z,39.77
2018-01-10T23:36:54.005Z,46.87
2018-01-10T23:39:22.755Z,38.03
2018-01-10T23:41:50.775Z,40.13
2018-01-10T23:44:19.593Z,42.10
2018-01-10T23:46:47.679Z,39.03
2018-01-10T23:49:15.660Z,41.97
2018-01-10T23:51:43.781Z,38.90
2018-01-10T23:54:12.471Z,44.37
2018-01-10T23:56:40.489Z,38.43
2018-01-10T23:59:08.513Z,39.10
